createdAt,value
2022-07-31T00:01:51.767Z,7.38
2022-07-31T00:06:55.496Z,7.15
2022-07-31T00:11:59.184Z,6.65
2022-07-31T00:17:04.476Z,6.28
2022-07-31T00:22:08.184Z,7.65
2022-07-31T00:27:11.867Z,5.85
2022-07-31T00:32:16.977Z,6.95
2022-07-31T00:37:20.571Z,6.45
2022-07-31T00:42:27.562Z,6.60
2022-07-31T00:47:32.208Z,6.57
2022-07-31T00:52:35.893Z,6.03
2022-07-31T00:57:39.641Z,6.75
2022-07-31T01:02:46.435Z,7.10
2022-07-31T01:07:51.425Z,7.15
2022-07-31T01:13:00.561Z,7.68
2022-07-31T01:18:06.500Z,6.68
2022-07-31T01:23:32.316Z,7.03
2022-07-31T01:28:55.022Z,7.32
2022-07-31T01:34:04.311Z,6.93
2022-07-31T01:39:07.924Z,7.72
2022-07-31T01:44:14.841Z,6.82
2022-07-31T01:49:20.200Z,7.00
2022-07-31T01:54:24.523Z,6.72
2022-07-31T01:59:31.610Z,8.02
2022-07-31T02:04:38.160Z,7.95
2022-07-31T02:09:58.110Z,7.80
2022-07-31T02:15:05.835Z,8.02
2022-07-31T02:20:12.719Z,7.10
2022-07-31T02:25:16.416Z,8.23
2022-07-31T02:30:22.243Z,9.13
2022-07-31T02:35:26.416Z,7.90
2022-07-31T02:40:30.108Z,7.97
2022-07-31T02:45:35.657Z,7.68
2022-07-31T02:50:41.443Z,8.02
2022-07-31T02:55:46.325Z,8.75
2022-07-31T03:01:00.191Z,8.30
2022-07-31T03:06:03.785Z,8.27
2022-07-31T03:11:07.423Z,7.85
2022-07-31T03:16:13.731Z,8.50
2022-07-31T03:21:19.249Z,8.85
2022-07-31T03:26:23.404Z,7.13
2022-07-31T03:31:28.571Z,8.15
2022-07-31T03:36:33.361Z,7.97
2022-07-31T03:41:37.009Z,7.85
2022-07-31T03:46:41.920Z,8.50
2022-07-31T03:51:45.784Z,8.15
2022-07-31T03:56:51.966Z,7.75
2022-07-31T04:01:58.889Z,8.43
2022-07-31T04:07:02.506Z,8.63
2022-07-31T04:12:06.792Z,9.20
2022-07-31T04:17:12.133Z,7.93
2022-07-31T04:22:15.624Z,7.38
2022-07-31T04:27:20.062Z,8.32
2022-07-31T04:32:25.502Z,7.78
2022-07-31T04:37:29.185Z,7.93
2022-07-31T04:42:32.795Z,7.63
2022-07-31T04:47:38.354Z,7.18
2022-07-31T04:52:42.068Z,8.05
2022-07-31T04:57:45.798Z,7.43
2022-07-31T05:02:50.876Z,8.00
2022-07-31T05:07:54.197Z,7.07
2022-07-31T05:12:57.623Z,8.85
2022-07-31T05:18:02.464Z,7.90
2022-07-31T05:23:06.717Z,7.00
2022-07-31T05:28:10.229Z,6.80
2022-07-31T05:33:14.973Z,6.88
2022-07-31T05:38:20.112Z,6.43
2022-07-31T05:43:23.979Z,6.53
2022-07-31T05:48:28.908Z,6.35
2022-07-31T05:53:32.159Z,5.75
2022-07-31T05:58:35.802Z,5.57
2022-07-31T06:03:52.433Z,5.03
2022-07-31T06:08:58.437Z,4.82
2022-07-31T06:14:05.293Z,5.10
2022-07-31T06:19:09.951Z,4.18
2022-07-31T06:24:13.544Z,4.15
2022-07-31T06:29:17.196Z,4.00
2022-07-31T06:34:22.116Z,3.25
2022-07-31T06:39:28.064Z,3.58
2022-07-31T06:44:49.504Z,3.53
2022-07-31T06:49:55.691Z,3.10
2022-07-31T06:54:59.031Z,3.20
2022-07-31T07:00:07.299Z,3.45
2022-07-31T07:05:25.027Z,3.55
2022-07-31T07:10:28.334Z,2.72
2022-07-31T07:15:31.861Z,3.13
2022-07-31T07:20:36.538Z,3.40
2022-07-31T07:25:41.272Z,3.00
2022-07-31T07:30:45.536Z,3.35
2022-07-31T07:35:50.594Z,3.05
2022-07-31T07:40:54.096Z,3.33
2022-07-31T07:45:57.677Z,2.90
2022-07-31T07:51:02.565Z,2.30
2022-07-31T07:56:06.632Z,2.10
2022-07-31T08:01:10.322Z,2.30
2022-07-31T08:06:15.148Z,2.22
2022-07-31T08:11:18.659Z,1.75
2022-07-31T08:16:22.318Z,1.80
2022-07-31T08:21:27.539Z,1.90
2022-07-31T08:26:51.998Z,2.63
2022-07-31T08:31:55.288Z,3.20
2022-07-31T08:37:51.275Z,2.65
2022-07-31T08:42:23.613Z,2.30
2022-07-31T08:47:28.164Z,2.28
2022-07-31T08:52:35.110Z,3.22
2022-07-31T08:57:38.637Z,2.65
2022-07-31T09:02:42.618Z,2.40
2022-07-31T09:07:47.572Z,2.08
2022-07-31T09:12:51.088Z,1.73
2022-07-31T09:17:55.308Z,2.47
2022-07-31T09:28:13.468Z,1.80
2022-07-31T09:33:18.909Z,2.40
2022-07-31T09:38:23.467Z,2.08
2022-07-31T09:43:31.472Z,1.70
2022-07-31T09:48:35.899Z,1.92
2022-07-31T09:53:43.930Z,1.50
2022-07-31T09:58:48.497Z,1.75
2022-07-31T10:03:53.503Z,1.35
2022-07-31T10:08:57.781Z,1.77
2022-07-31T10:14:04.099Z,1.33
2022-07-31T10:19:11.570Z,1.10
2022-07-31T10:24:14.862Z,1.90
2022-07-31T10:29:20.050Z,1.40
2022-07-31T10:34:23.932Z,1.30
2022-07-31T10:39:32.704Z,1.20
2022-07-31T10:44:41.635Z,1.40
2022-07-31T10:49:48.127Z,1.48
2022-07-31T10:54:51.297Z,1.20
2022-07-31T10:59:55.922Z,1.13
2022-07-31T11:05:14.321Z,1.42
2022-07-31T11:10:19.881Z,0.98
2022-07-31T11:15:25.896Z,0.90
2022-07-31T11:20:31.158Z,1.20
2022-07-31T11:25:37.128Z,1.10
2022-07-31T11:30:55.694Z,0.75
2022-07-31T11:36:06.405Z,0.77
2022-07-31T11:46:16.875Z,1.10
2022-07-31T11:51:20.308Z,0.80
2022-07-31T11:56:24.820Z,1.10
2022-07-31T12:01:30.847Z,0.75
2022-07-31T12:06:36.542Z,0.80
2022-07-31T12:11:40.448Z,0.80
2022-07-31T12:16:45.520Z,0.85
2022-07-31T12:21:49.238Z,0.90
2022-07-31T12:26:54.980Z,0.77
2022-07-31T12:32:19.349Z,0.65
2022-07-31T12:37:47.218Z,0.70
2022-07-31T12:43:01.365Z,0.52
2022-07-31T12:48:07.550Z,0.60
2022-07-31T12:53:10.687Z,0.60
2022-07-31T12:58:51.927Z,0.60
2022-07-31T13:04:19.760Z,0.50
2022-07-31T13:09:23.254Z,0.60
2022-07-31T13:14:40.325Z,0.65
2022-07-31T13:20:00.062Z,0.50
2022-07-31T13:25:07.455Z,0.70
2022-07-31T13:30:11.680Z,0.77
2022-07-31T13:35:23.573Z,0.45
2022-07-31T13:41:06.963Z,0.70
2022-07-31T13:46:20.870Z,0.70
2022-07-31T13:51:34.607Z,0.43
2022-07-31T13:56:43.084Z,2.28
2022-07-31T14:02:21.966Z,0.63
2022-07-31T14:07:48.164Z,0.90
2022-07-31T14:12:55.420Z,0.60
2022-07-31T14:17:58.972Z,0.65
2022-07-31T14:23:04.558Z,0.60
2022-07-31T14:28:37.106Z,0.70
2022-07-31T14:33:40.955Z,0.63
2022-07-31T14:38:45.681Z,0.50
2022-07-31T14:44:01.028Z,0.63
2022-07-31T14:49:05.064Z,0.60
2022-07-31T14:54:09.762Z,0.88
2022-07-31T14:59:13.394Z,0.75
2022-07-31T15:04:16.949Z,0.80
2022-07-31T15:09:21.678Z,0.88
2022-07-31T15:14:25.450Z,1.00
2022-07-31T15:19:29.266Z,0.73
2022-07-31T15:24:34.202Z,0.82
2022-07-31T15:30:00.672Z,0.80
2022-07-31T15:35:01.147Z,0.90
2022-07-31T15:40:08.243Z,1.20
2022-07-31T15:45:13.958Z,0.93
2022-07-31T15:50:19.539Z,0.77
2022-07-31T15:55:24.613Z,0.80
2022-07-31T16:00:28.291Z,1.48
2022-07-31T16:05:35.978Z,0.95
2022-07-31T16:10:41.722Z,0.80
2022-07-31T16:15:45.396Z,0.85
2022-07-31T16:20:49.199Z,0.73
2022-07-31T16:25:53.891Z,0.70
2022-07-31T16:30:56.980Z,0.90
2022-07-31T16:36:00.952Z,1.15
2022-07-31T16:41:05.994Z,1.20
2022-07-31T16:46:09.583Z,1.30
2022-07-31T16:51:13.308Z,0.80
2022-07-31T16:56:18.234Z,1.10
2022-07-31T17:01:56.796Z,1.10
2022-07-31T17:06:45.903Z,0.90
2022-07-31T17:11:52.242Z,1.13
2022-07-31T17:16:57.246Z,1.25
2022-07-31T17:22:00.884Z,1.48
2022-07-31T17:27:08.801Z,1.00
2022-07-31T17:32:12.846Z,1.00
2022-07-31T17:37:18.283Z,1.25
2022-07-31T17:42:23.701Z,3.92
2022-07-31T17:47:28.884Z,1.42
2022-07-31T17:52:32.543Z,1.40
2022-07-31T17:57:37.856Z,1.35
2022-07-31T18:02:42.176Z,1.10
2022-07-31T18:07:51.817Z,1.25
2022-07-31T18:12:58.356Z,1.00
2022-07-31T18:18:01.934Z,1.08
2022-07-31T18:23:05.272Z,1.70
2022-07-31T18:28:15.013Z,1.45
2022-07-31T18:33:18.670Z,1.50
2022-07-31T18:38:22.115Z,1.67
2022-07-31T18:43:26.971Z,1.60
2022-07-31T18:48:30.623Z,1.05
2022-07-31T18:53:33.813Z,1.55
2022-07-31T18:58:38.806Z,1.30
2022-07-31T19:03:41.985Z,1.60
2022-07-31T19:08:46.363Z,1.45
2022-07-31T19:13:51.481Z,1.75
2022-07-31T19:18:54.885Z,1.63
2022-07-31T19:24:00.478Z,1.52
2022-07-31T19:29:05.429Z,1.20
2022-07-31T19:34:08.869Z,1.50
2022-07-31T19:39:12.200Z,1.50
2022-07-31T19:44:17.064Z,1.55
2022-07-31T19:49:21.345Z,1.10
2022-07-31T19:54:24.559Z,1.00
2022-07-31T19:59:32.410Z,1.20
2022-07-31T20:04:37.697Z,1.63
2022-07-31T20:09:41.357Z,1.38
2022-07-31T20:14:45.938Z,1.15
2022-07-31T20:20:15.094Z,1.45
2022-07-31T20:25:20.258Z,1.30
2022-07-31T20:30:25.721Z,2.43
2022-07-31T20:35:47.630Z,1.40
2022-07-31T20:40:55.584Z,3.17
2022-07-31T20:46:01.217Z,2.25
2022-07-31T20:51:06.237Z,1.40
2022-07-31T20:56:09.791Z,1.73
2022-07-31T21:01:15.576Z,1.75
2022-07-31T21:06:19.828Z,1.88
2022-07-31T21:11:23.390Z,1.63
2022-07-31T21:16:36.682Z,1.13
2022-07-31T21:21:40.360Z,2.20
2022-07-31T21:26:46.184Z,1.80
2022-07-31T21:31:57.793Z,1.75
2022-07-31T21:37:02.651Z,1.85
2022-07-31T21:42:10.712Z,1.83
2022-07-31T21:47:17.738Z,2.10
2022-07-31T21:52:23.771Z,2.42
2022-07-31T21:57:27.223Z,2.20
2022-07-31T22:02:33.389Z,2.17
2022-07-31T22:07:43.057Z,1.63
2022-07-31T22:12:46.597Z,1.38
2022-07-31T22:17:51.427Z,1.23
2022-07-31T22:22:56.628Z,1.52
2022-07-31T22:28:01.270Z,1.17
2022-07-31T22:33:06.611Z,2.00
2022-07-31T22:38:11.532Z,1.58
2022-07-31T22:44:10.424Z,1.55
2022-07-31T22:48:41.405Z,1.88
2022-07-31T22:53:48.642Z,1.70
2022-07-31T22:58:52.752Z,1.73
2022-07-31T23:03:57.275Z,1.95
2022-07-31T23:09:01.248Z,2.00
2022-07-31T23:14:04.889Z,1.85
2022-07-31T23:19:09.705Z,2.17
2022-07-31T23:24:13.756Z,1.88
2022-07-31T23:29:17.208Z,2.30
2022-07-31T23:34:22.228Z,2.30
2022-07-31T23:39:25.605Z,1.95
2022-07-31T23:44:30.266Z,2.40
2022-07-31T23:49:34.949Z,2.80
2022-07-31T23:54:38.643Z,1.90
2022-07-31T23:59:42.091Z,1.77
